sensor_id;sensor_type;location;lat;lon;timestamp;temperature;humidity
3736;DHT22;1883;48.202;16.310;2023-03-23T00:42:12;11.00;70.00
3736;DHT22;1883;48.202;16.310;2023-03-23T00:44:41;11.10;70.10
3736;DHT22;1883;48.202;16.310;2023-03-23T01:47:55;10.40;69.60
3736;DHT22;1883;48.202;16.310;2023-03-23T01:50:25;10.40;69.60
3736;DHT22;1883;48.202;16.310;2023-03-23T01:52:54;10.30;69.50
3736;DHT22;1883;48.202;16.310;2023-03-23T01:55:22;10.30;69.50
3736;DHT22;1883;48.202;16.310;2023-03-23T01:57:50;10.30;69.50
3736;DHT22;1883;48.202;16.310;2023-03-23T02:00:18;10.30;69.40
3736;DHT22;1883;48.202;16.310;2023-03-23T02:02:48;10.20;69.40
3736;DHT22;1883;48.202;16.310;2023-03-23T02:05:20;10.10;69.40
3736;DHT22;1883;48.202;16.310;2023-03-23T02:07:50;10.10;69.40
3736;DHT22;1883;48.202;16.310;2023-03-23T02:10:18;10.10;69.30
3736;DHT22;1883;48.202;16.310;2023-03-23T02:12:45;10.10;69.30
3736;DHT22;1883;48.202;16.310;2023-03-23T02:15:12;10.20;69.30
3736;DHT22;1883;48.202;16.310;2023-03-23T02:28:19;10.30;69.40
3736;DHT22;1883;48.202;16.310;2023-03-23T02:34:11;10.30;69.40
3736;DHT22;1883;48.202;16.310;2023-03-23T02:36:42;10.20;69.40
3736;DHT22;1883;48.202;16.310;2023-03-23T02:39:14;10.20;69.30
3736;DHT22;1883;48.202;16.310;2023-03-23T02:41:47;10.20;69.30
3736;DHT22;1883;48.202;16.310;2023-03-23T02:44:17;10.10;69.20
3736;DHT22;1883;48.202;16.310;2023-03-23T02:46:45;10.00;69.20
3736;DHT22;1883;48.202;16.310;2023-03-23T02:49:16;10.00;69.20
3736;DHT22;1883;48.202;16.310;2023-03-23T02:51:45;10.00;69.10
3736;DHT22;1883;48.202;16.310;2023-03-23T02:54:14;10.00;69.10
3736;DHT22;1883;48.202;16.310;2023-03-23T02:56:43;10.00;69.10
3736;DHT22;1883;48.202;16.310;2023-03-23T02:59:11;10.00;69.00
3736;DHT22;1883;48.202;16.310;2023-03-23T03:01:53;10.00;69.00
3736;DHT22;1883;48.202;16.310;2023-03-23T03:04:25;9.90;69.00
3736;DHT22;1883;48.202;16.310;2023-03-23T03:07:07;9.90;68.90
3736;DHT22;1883;48.202;16.310;2023-03-23T03:09:42;9.90;68.90
3736;DHT22;1883;48.202;16.310;2023-03-23T03:12:17;9.90;68.80
3736;DHT22;1883;48.202;16.310;2023-03-23T03:14:51;9.80;68.80
3736;DHT22;1883;48.202;16.310;2023-03-23T03:17:22;9.90;68.80
3736;DHT22;1883;48.202;16.310;2023-03-23T03:19:55;9.90;68.80
3736;DHT22;1883;48.202;16.310;2023-03-23T03:22:25;9.90;68.80
3736;DHT22;1883;48.202;16.310;2023-03-23T03:24:56;9.90;68.80
3736;DHT22;1883;48.202;16.310;2023-03-23T03:27:25;9.90;68.80
3736;DHT22;1883;48.202;16.310;2023-03-23T03:29:56;9.80;68.70
3736;DHT22;1883;48.202;16.310;2023-03-23T03:32:31;9.80;68.70
3736;DHT22;1883;48.202;16.310;2023-03-23T03:35:01;9.80;68.70
3736;DHT22;1883;48.202;16.310;2023-03-23T03:37:34;9.80;68.70
3736;DHT22;1883;48.202;16.310;2023-03-23T03:40:04;9.70;68.60
3736;DHT22;1883;48.202;16.310;2023-03-23T03:42:36;9.60;68.60
3736;DHT22;1883;48.202;16.310;2023-03-23T03:45:04;9.60;68.50
3736;DHT22;1883;48.202;16.310;2023-03-23T03:47:32;9.70;68.50
3736;DHT22;1883;48.202;16.310;2023-03-23T03:50:01;9.70;68.50
3736;DHT22;1883;48.202;16.310;2023-03-23T03:52:28;9.60;68.50
3736;DHT22;1883;48.202;16.310;2023-03-23T03:54:55;9.70;68.50
3736;DHT22;1883;48.202;16.310;2023-03-23T03:57:23;9.60;68.40
3736;DHT22;1883;48.202;16.310;2023-03-23T03:59:50;9.60;68.40
3736;DHT22;1883;48.202;16.310;2023-03-23T04:02:18;9.60;68.40
3736;DHT22;1883;48.202;16.310;2023-03-23T04:04:46;9.60;68.40
3736;DHT22;1883;48.202;16.310;2023-03-23T04:07:15;9.60;68.40
3736;DHT22;1883;48.202;16.310;2023-03-23T04:09:42;9.60;68.40
3736;DHT22;1883;48.202;16.310;2023-03-23T04:15:18;9.50;68.30
3736;DHT22;1883;48.202;16.310;2023-03-23T04:17:45;9.50;68.30
3736;DHT22;1883;48.202;16.310;2023-03-23T04:20:12;9.50;68.30
3736;DHT22;1883;48.202;16.310;2023-03-23T04:22:42;9.50;68.30
3736;DHT22;1883;48.202;16.310;2023-03-23T04:25:11;9.40;68.20
3736;DHT22;1883;48.202;16.310;2023-03-23T04:27:40;9.40;68.20
3736;DHT22;1883;48.202;16.310;2023-03-23T04:30:12;9.40;68.10
3736;DHT22;1883;48.202;16.310;2023-03-23T04:32:40;9.40;68.10
3736;DHT22;1883;48.202;16.310;2023-03-23T04:35:09;9.40;68.10
3736;DHT22;1883;48.202;16.310;2023-03-23T04:37:38;9.30;68.10
3736;DHT22;1883;48.202;16.310;2023-03-23T04:40:09;9.30;68.10
3736;DHT22;1883;48.202;16.310;2023-03-23T04:42:39;9.20;68.00
3736;DHT22;1883;48.202;16.310;2023-03-23T04:45:08;9.20;68.00
3736;DHT22;1883;48.202;16.310;2023-03-23T04:50:04;9.20;68.00
3736;DHT22;1883;48.202;16.310;2023-03-23T04:52:32;9.20;67.90
3736;DHT22;1883;48.202;16.310;2023-03-23T04:54:59;9.20;67.90
3736;DHT22;1883;48.202;16.310;2023-03-23T04:57:28;9.30;67.80
3736;DHT22;1883;48.202;16.310;2023-03-23T04:59:57;9.30;67.80
